createdAt,value
2023-01-26T00:02:27.951Z,97788.31
2023-01-26T00:04:56.315Z,97785.92
2023-01-26T00:07:24.394Z,97781.46
2023-01-26T00:09:52.472Z,97776.88
2023-01-26T00:12:20.748Z,97778.59
2023-01-26T00:14:51.700Z,97777.24
2023-01-26T00:17:27.756Z,97771.25
2023-01-26T00:19:57.904Z,97769.39
2023-01-26T00:22:27.760Z,97766.55
2023-01-26T00:24:55.979Z,97766.43
2023-01-26T00:27:24.215Z,97765.58
2023-01-26T00:29:52.485Z,97769.52
2023-01-26T00:32:20.508Z,97759.75
2023-01-26T00:34:49.507Z,97753.58
2023-01-26T00:37:18.191Z,97748.23
2023-01-26T00:39:46.478Z,97749.63
2023-01-26T00:42:16.077Z,97751.14
2023-01-26T00:44:44.469Z,97751.79
2023-01-26T00:47:14.901Z,97751.10
2023-01-26T00:49:43.388Z,97748.54
2023-01-26T00:52:12.819Z,97749.75
2023-01-26T00:54:40.975Z,97747.55
2023-01-26T00:57:09.593Z,97747.22
2023-01-26T00:59:37.757Z,97742.79
2023-01-26T01:02:05.875Z,97741.69
2023-01-26T01:04:34.108Z,97739.16
2023-01-26T01:07:02.292Z,97733.86
2023-01-26T01:09:30.657Z,97735.38
2023-01-26T01:11:58.675Z,97730.42
2023-01-26T01:14:26.820Z,97733.14
2023-01-26T01:16:54.813Z,97729.73
2023-01-26T01:19:23.050Z,97727.05
2023-01-26T01:21:51.035Z,97726.57
2023-01-26T01:24:19.069Z,97724.35
2023-01-26T01:26:47.199Z,97718.56
2023-01-26T01:29:15.590Z,97718.77
2023-01-26T01:31:44.441Z,97713.79
2023-01-26T01:34:12.549Z,97715.84
2023-01-26T01:36:41.556Z,97712.42
2023-01-26T01:39:10.040Z,97705.42
2023-01-26T01:41:38.106Z,97704.75
2023-01-26T01:44:16.206Z,97701.86
2023-01-26T01:46:49.188Z,97699.67
2023-01-26T01:49:24.167Z,97697.77
2023-01-26T01:52:04.319Z,97696.43
2023-01-26T01:54:45.281Z,97689.44
2023-01-26T01:57:27.999Z,97685.35
2023-01-26T02:00:07.636Z,97682.81
2023-01-26T02:03:05.977Z,97678.37
2023-01-26T02:05:39.168Z,97675.98
2023-01-26T02:08:09.918Z,97675.30
2023-01-26T02:10:38.115Z,97668.68
2023-01-26T02:13:07.497Z,97663.76
2023-01-26T02:15:35.731Z,97662.37
2023-01-26T02:18:05.477Z,97655.89
2023-01-26T02:20:45.925Z,97650.44
2023-01-26T02:23:42.258Z,97647.67
2023-01-26T02:26:14.344Z,97642.52
2023-01-26T02:28:44.221Z,97637.23
2023-01-26T02:31:13.549Z,97642.34
2023-01-26T02:33:42.859Z,97639.98
2023-01-26T02:36:26.489Z,97635.75
2023-01-26T02:39:25.227Z,97632.51
2023-01-26T02:42:13.025Z,97628.75
2023-01-26T02:44:44.130Z,97629.59
2023-01-26T02:47:18.269Z,97627.58
2023-01-26T02:49:47.476Z,97627.73
2023-01-26T02:52:27.957Z,97622.81
2023-01-26T02:55:28.848Z,97621.79
2023-01-26T02:58:00.749Z,97618.02
2023-01-26T03:00:32.195Z,97620.42
2023-01-26T03:03:02.273Z,97613.08
2023-01-26T03:05:31.375Z,97610.68
2023-01-26T03:08:01.287Z,97607.95
2023-01-26T03:10:34.471Z,97606.93
2023-01-26T03:13:03.579Z,97605.06
2023-01-26T03:15:43.386Z,97607.47
2023-01-26T03:18:36.064Z,97604.20
2023-01-26T03:21:31.376Z,97599.77
2023-01-26T03:24:18.622Z,97598.16
2023-01-26T03:27:05.889Z,97591.99
2023-01-26T03:29:34.100Z,97591.33
2023-01-26T03:32:02.547Z,97588.27
2023-01-26T03:34:31.761Z,97587.94
2023-01-26T03:37:00.139Z,97587.45
2023-01-26T03:39:52.169Z,97583.70
2023-01-26T03:42:38.970Z,97583.36
2023-01-26T03:45:27.304Z,97579.62
2023-01-26T03:48:25.817Z,97582.34
2023-01-26T03:51:12.478Z,97577.27
2023-01-26T03:53:59.382Z,97571.45
2023-01-26T03:56:32.917Z,97570.82
2023-01-26T03:59:11.055Z,97569.61
2023-01-26T04:02:06.633Z,97567.39
2023-01-26T04:04:55.130Z,97570.08
2023-01-26T04:07:46.132Z,97565.19
2023-01-26T04:10:14.313Z,97566.71
2023-01-26T04:12:43.317Z,97562.95
2023-01-26T04:15:35.028Z,97560.55
2023-01-26T04:18:26.584Z,97558.80
2023-01-26T04:21:14.674Z,97554.41
2023-01-26T04:23:44.873Z,97553.58
2023-01-26T04:26:12.969Z,97552.36
2023-01-26T04:28:41.555Z,97549.60
2023-01-26T04:31:09.835Z,97550.30
2023-01-26T04:33:39.040Z,97555.05
2023-01-26T04:36:09.471Z,97551.44
2023-01-26T04:38:40.999Z,97553.44
2023-01-26T04:41:09.615Z,97550.67
2023-01-26T04:43:44.546Z,97546.94
2023-01-26T04:46:12.826Z,97542.50
2023-01-26T04:48:42.550Z,97537.92
2023-01-26T04:51:14.527Z,97535.89
2023-01-26T04:53:42.788Z,97537.92
2023-01-26T04:56:18.131Z,97544.57
2023-01-26T04:58:46.730Z,97545.59
2023-01-26T05:01:15.216Z,97550.38
2023-01-26T05:03:43.787Z,97552.94
2023-01-26T05:06:12.806Z,97550.90
2023-01-26T05:08:42.297Z,97546.95
2023-01-26T05:11:11.708Z,97544.05
2023-01-26T05:13:57.993Z,97545.76
2023-01-26T05:16:50.088Z,97538.91
2023-01-26T05:19:40.563Z,97541.30
2023-01-26T05:22:28.047Z,97539.77
2023-01-26T05:25:19.741Z,97536.69
2023-01-26T05:27:54.284Z,97538.06
2023-01-26T05:30:22.543Z,97542.15
2023-01-26T05:32:51.643Z,97541.31
2023-01-26T05:35:20.138Z,97541.00
2023-01-26T05:37:48.201Z,97542.10
2023-01-26T05:40:16.681Z,97540.75
2023-01-26T05:42:46.510Z,97535.30
2023-01-26T05:45:25.231Z,97539.92
2023-01-26T05:47:56.680Z,97533.10
2023-01-26T05:50:25.023Z,97533.09
2023-01-26T05:53:13.605Z,97536.35
2023-01-26T05:55:41.956Z,97537.73
2023-01-26T05:58:11.508Z,97537.59
2023-01-26T06:00:40.501Z,97541.70
2023-01-26T06:03:12.319Z,97540.39
2023-01-26T06:05:40.536Z,97540.05
2023-01-26T06:08:15.875Z,97542.61
2023-01-26T06:11:02.831Z,97540.73
2023-01-26T06:13:46.832Z,97537.66
2023-01-26T06:16:33.959Z,97534.91
2023-01-26T06:19:02.311Z,97538.36
2023-01-26T06:21:31.404Z,97541.77
2023-01-26T06:24:00.273Z,97539.73
2023-01-26T06:26:28.589Z,97537.38
2023-01-26T06:28:58.302Z,97536.19
2023-01-26T06:31:32.128Z,97538.11
2023-01-26T06:34:02.146Z,97535.57
2023-01-26T06:36:30.723Z,97531.48
2023-01-26T06:39:00.949Z,97530.14
2023-01-26T06:41:29.680Z,97533.68
2023-01-26T06:43:58.020Z,97530.52
2023-01-26T06:46:26.218Z,97528.27
2023-01-26T06:48:55.818Z,97532.40
2023-01-26T06:51:58.370Z,97534.08
2023-01-26T06:54:51.134Z,97531.55
2023-01-26T06:57:42.185Z,97533.42
2023-01-26T07:00:32.812Z,97531.52
2023-01-26T07:03:14.589Z,97527.24
2023-01-26T07:05:42.782Z,97534.41
2023-01-26T07:08:10.848Z,97536.64
2023-01-26T07:10:39.342Z,97537.64
2023-01-26T07:13:08.131Z,97541.55
2023-01-26T07:15:36.300Z,97540.48
2023-01-26T07:18:04.283Z,97540.95
2023-01-26T07:20:32.665Z,97535.27
2023-01-26T07:23:01.093Z,97535.73
2023-01-26T07:25:29.140Z,97528.38
2023-01-26T07:27:58.149Z,97528.36
2023-01-26T07:30:26.922Z,97523.17
2023-01-26T07:32:55.086Z,97526.59
2023-01-26T07:35:23.160Z,97525.04
2023-01-26T07:37:51.238Z,97520.39
2023-01-26T07:40:19.366Z,97519.00
2023-01-26T07:42:47.903Z,97519.82
2023-01-26T07:45:20.183Z,97519.42
2023-01-26T07:47:48.765Z,97522.32
2023-01-26T07:50:16.941Z,97517.37
2023-01-26T07:52:45.341Z,97519.36
2023-01-26T07:55:13.613Z,97520.37
2023-01-26T07:57:41.690Z,97521.34
2023-01-26T08:00:12.159Z,97523.33
2023-01-26T08:02:40.832Z,97525.05
2023-01-26T08:05:09.485Z,97526.05
2023-01-26T08:07:37.567Z,97520.52
2023-01-26T08:10:06.698Z,97522.17
2023-01-26T08:12:39.053Z,97518.36
2023-01-26T08:15:10.705Z,97518.52
2023-01-26T08:17:38.726Z,97516.41
2023-01-26T08:20:07.378Z,97512.80
2023-01-26T08:22:35.545Z,97514.98
2023-01-26T08:25:04.242Z,97515.10
2023-01-26T08:27:32.462Z,97513.52
2023-01-26T08:30:00.503Z,97519.14
2023-01-26T08:32:30.622Z,97520.30
2023-01-26T08:34:58.675Z,97519.01
2023-01-26T08:37:26.663Z,97512.12
2023-01-26T08:39:54.648Z,97511.04
2023-01-26T08:42:22.968Z,97509.91
2023-01-26T08:44:52.629Z,97513.77
2023-01-26T08:47:20.609Z,97508.42
2023-01-26T08:49:48.684Z,97510.77
2023-01-26T08:52:16.964Z,97508.77
2023-01-26T08:54:44.942Z,97507.48
2023-01-26T08:57:13.020Z,97503.30
2023-01-26T08:59:41.200Z,97501.14
2023-01-26T09:02:10.752Z,97498.48
2023-01-26T09:04:39.129Z,97491.61
2023-01-26T09:07:07.467Z,97495.15
2023-01-26T09:09:35.747Z,97491.63
2023-01-26T09:12:04.746Z,97487.64
2023-01-26T09:14:32.830Z,97487.79
2023-01-26T09:17:00.896Z,97483.28
2023-01-26T09:19:30.917Z,97479.60
2023-01-26T09:21:59.506Z,97475.94
2023-01-26T09:24:27.842Z,97478.58
2023-01-26T09:26:56.068Z,97476.28
2023-01-26T09:29:24.350Z,97480.11
2023-01-26T09:31:52.505Z,97478.54
2023-01-26T09:34:20.710Z,97472.88
2023-01-26T09:36:48.784Z,97473.34
2023-01-26T09:39:17.130Z,97472.27
2023-01-26T09:42:23.111Z,97464.65
2023-01-26T09:45:09.494Z,97461.32
2023-01-26T09:47:51.604Z,97458.52
2023-01-26T09:50:24.385Z,97451.30
2023-01-26T09:53:34.416Z,97449.67
2023-01-26T09:56:02.804Z,97447.38
2023-01-26T09:58:39.641Z,97447.01
2023-01-26T10:01:22.733Z,97435.49
2023-01-26T10:04:04.280Z,97431.80
2023-01-26T10:06:33.181Z,97438.23
2023-01-26T10:09:26.911Z,97436.11
2023-01-26T10:11:58.501Z,97434.67
2023-01-26T10:14:41.614Z,97432.90
2023-01-26T10:17:35.264Z,97432.49
2023-01-26T10:20:20.139Z,97425.75
2023-01-26T10:23:02.530Z,97424.34
2023-01-26T10:25:38.654Z,97425.67
2023-01-26T10:28:17.724Z,97421.36
2023-01-26T10:30:47.749Z,97421.11
2023-01-26T10:33:32.762Z,97420.87
2023-01-26T10:36:02.511Z,97419.60
2023-01-26T10:38:33.574Z,97411.64
2023-01-26T10:41:26.399Z,97408.68
2023-01-26T10:44:10.424Z,97400.55
2023-01-26T10:46:41.372Z,97401.96
2023-01-26T10:49:09.563Z,97400.55
2023-01-26T10:51:40.207Z,97402.41
2023-01-26T10:54:22.277Z,97392.90
2023-01-26T10:56:57.938Z,97386.16
2023-01-26T10:59:33.692Z,97384.36
2023-01-26T11:02:10.979Z,97382.61
2023-01-26T11:04:39.828Z,97378.61
2023-01-26T11:07:25.446Z,97372.60
2023-01-26T11:09:54.651Z,97368.45
2023-01-26T11:12:25.699Z,97359.67
2023-01-26T11:15:24.379Z,97356.89
2023-01-26T11:18:24.793Z,97356.46
2023-01-26T11:21:06.369Z,97355.23
2023-01-26T11:23:34.749Z,97350.19
2023-01-26T11:26:17.686Z,97348.80
2023-01-26T11:29:06.615Z,97347.73
2023-01-26T11:32:23.209Z,97348.52
2023-01-26T11:35:04.596Z,97338.85
2023-01-26T11:37:57.011Z,97336.44
2023-01-26T11:40:43.381Z,97333.15
2023-01-26T11:43:36.450Z,97327.80
2023-01-26T11:46:26.329Z,97315.90
2023-01-26T11:48:57.060Z,97317.04
2023-01-26T11:51:31.183Z,97312.90
2023-01-26T11:54:17.474Z,97311.67
2023-01-26T11:56:56.701Z,97310.36
2023-01-26T11:59:31.223Z,97305.55
2023-01-26T12:02:27.515Z,97299.52
2023-01-26T12:05:01.042Z,97294.51
2023-01-26T12:07:54.943Z,97293.30
2023-01-26T12:10:39.975Z,97292.13
2023-01-26T12:13:33.432Z,97294.34
2023-01-26T12:16:27.750Z,97296.86
2023-01-26T12:19:12.562Z,97293.24
2023-01-26T12:21:45.199Z,97290.83
2023-01-26T12:24:48.423Z,97281.05
2023-01-26T12:27:25.472Z,97281.32
2023-01-26T12:30:04.321Z,97276.52
2023-01-26T12:32:33.748Z,97269.84
2023-01-26T12:35:02.117Z,97263.67
2023-01-26T12:38:17.260Z,97262.77
2023-01-26T12:40:55.272Z,97260.33
2023-01-26T12:43:40.021Z,97261.62
2023-01-26T12:46:09.482Z,97262.60
2023-01-26T12:49:17.607Z,97263.25
2023-01-26T12:51:52.956Z,97265.77
2023-01-26T12:54:37.619Z,97262.81
2023-01-26T12:57:12.837Z,97261.33
2023-01-26T12:59:47.971Z,97257.66
2023-01-26T13:02:16.875Z,97249.73
2023-01-26T13:04:48.886Z,97246.77
2023-01-26T13:07:26.665Z,97243.58
2023-01-26T13:10:20.925Z,97238.73
2023-01-26T13:12:56.557Z,97245.91
2023-01-26T13:15:30.412Z,97242.48
2023-01-26T13:18:01.117Z,97236.76
2023-01-26T13:20:44.546Z,97240.80
2023-01-26T13:23:28.297Z,97238.21
2023-01-26T13:26:18.354Z,97236.10
2023-01-26T13:28:48.407Z,97231.29
2023-01-26T13:31:34.323Z,97231.46
2023-01-26T13:34:08.761Z,97227.49
2023-01-26T13:36:40.015Z,97227.49
2023-01-26T13:39:31.523Z,97227.14
2023-01-26T13:41:59.818Z,97229.02
2023-01-26T13:44:37.653Z,97227.78
2023-01-26T13:47:24.016Z,97228.97
2023-01-26T13:49:52.703Z,97227.08
2023-01-26T13:52:28.265Z,97222.80
2023-01-26T13:55:02.167Z,97219.70
2023-01-26T13:57:31.571Z,97218.19
2023-01-26T14:00:01.316Z,97216.20
2023-01-26T14:02:38.770Z,97217.91
2023-01-26T14:05:08.693Z,97221.31
2023-01-26T14:07:44.892Z,97217.19
2023-01-26T14:10:18.724Z,97215.15
2023-01-26T14:12:51.845Z,97208.09
2023-01-26T14:15:23.935Z,97208.77
2023-01-26T14:17:58.546Z,97206.55
2023-01-26T14:20:34.502Z,97206.57
2023-01-26T14:23:13.013Z,97205.04
2023-01-26T14:25:58.376Z,97201.94
2023-01-26T14:28:34.861Z,97198.86
2023-01-26T14:31:16.832Z,97193.67
2023-01-26T14:33:45.331Z,97189.04
2023-01-26T14:36:16.250Z,97186.30
2023-01-26T14:38:46.709Z,97183.19
2023-01-26T14:41:25.117Z,97173.27
2023-01-26T14:43:58.756Z,97173.23
2023-01-26T14:46:45.186Z,97174.61
2023-01-26T14:49:28.353Z,97171.35
2023-01-26T14:51:58.711Z,97172.73
2023-01-26T14:54:33.725Z,97171.23
2023-01-26T14:57:05.446Z,97168.19
2023-01-26T14:59:35.587Z,97164.36
2023-01-26T15:02:18.701Z,97161.52
2023-01-26T15:04:56.677Z,97156.55
2023-01-26T15:07:58.956Z,97149.05
2023-01-26T15:10:27.036Z,97144.64
2023-01-26T15:13:20.592Z,97148.59
2023-01-26T15:16:04.299Z,97155.14
2023-01-26T15:18:34.348Z,97160.26
2023-01-26T15:21:19.612Z,97158.70
2023-01-26T15:23:53.322Z,97159.24
2023-01-26T15:26:33.872Z,97158.62
2023-01-26T15:29:05.756Z,97160.02
2023-01-26T15:31:42.567Z,97158.71
2023-01-26T15:34:32.699Z,97156.45
2023-01-26T15:37:01.995Z,97152.16
2023-01-26T15:39:30.497Z,97153.06
2023-01-26T15:42:14.779Z,97153.55
2023-01-26T15:44:42.806Z,97162.48
2023-01-26T15:47:12.328Z,97164.71
2023-01-26T15:49:40.354Z,97159.27
2023-01-26T15:52:20.692Z,97157.57
2023-01-26T15:54:48.933Z,97160.48
2023-01-26T15:57:17.115Z,97160.95
2023-01-26T15:59:45.597Z,97158.47
2023-01-26T16:02:19.563Z,97149.13
2023-01-26T16:04:48.200Z,97145.79
2023-01-26T16:07:18.725Z,97145.79
2023-01-26T16:09:48.880Z,97148.04
2023-01-26T16:12:31.068Z,97148.73
2023-01-26T16:15:00.866Z,97144.96
2023-01-26T16:17:29.360Z,97141.08
2023-01-26T16:19:57.638Z,97140.95
2023-01-26T16:22:25.708Z,97137.56
2023-01-26T16:24:53.990Z,97137.11
2023-01-26T16:27:22.875Z,97130.95
2023-01-26T16:29:50.857Z,97128.06
2023-01-26T16:32:29.856Z,97129.27
2023-01-26T16:34:57.972Z,97129.13
2023-01-26T16:37:26.235Z,97129.92
2023-01-26T16:39:54.318Z,97128.77
2023-01-26T16:42:22.415Z,97128.88
2023-01-26T16:44:50.885Z,97127.88
2023-01-26T16:47:18.957Z,97126.68
2023-01-26T16:49:47.750Z,97125.85
2023-01-26T16:52:16.032Z,97123.22
2023-01-26T16:54:45.741Z,97122.77
2023-01-26T16:57:14.222Z,97121.45
2023-01-26T16:59:42.514Z,97119.91
2023-01-26T17:02:24.367Z,97116.21
2023-01-26T17:04:52.786Z,97113.30
2023-01-26T17:07:20.956Z,97107.89
2023-01-26T17:09:49.142Z,97107.40
2023-01-26T17:12:17.425Z,97102.45
2023-01-26T17:14:45.638Z,97100.09
2023-01-26T17:17:14.121Z,97092.04
2023-01-26T17:19:42.270Z,97096.65
2023-01-26T17:22:10.343Z,97091.98
2023-01-26T17:24:38.523Z,97091.30
2023-01-26T17:27:06.474Z,97091.96
2023-01-26T17:29:34.573Z,97088.86
2023-01-26T17:32:03.281Z,97086.45
2023-01-26T17:34:31.399Z,97087.63
2023-01-26T17:37:00.534Z,97085.77
2023-01-26T17:39:28.623Z,97087.16
2023-01-26T17:41:56.697Z,97085.51
2023-01-26T17:44:25.076Z,97087.42
2023-01-26T17:46:53.078Z,97085.59
2023-01-26T17:49:21.737Z,97088.57
2023-01-26T17:51:49.810Z,97092.59
2023-01-26T17:54:17.793Z,97088.16
2023-01-26T17:56:46.095Z,97090.08
2023-01-26T17:59:14.149Z,97085.99
2023-01-26T18:01:42.527Z,97083.80
2023-01-26T18:04:10.700Z,97083.88
2023-01-26T18:06:39.028Z,97082.38
2023-01-26T18:09:07.083Z,97085.82
2023-01-26T18:11:35.254Z,97080.20
2023-01-26T18:14:03.433Z,97074.39
2023-01-26T18:16:31.801Z,97075.43
2023-01-26T18:19:01.711Z,97077.00
2023-01-26T18:21:31.302Z,97078.73
2023-01-26T18:24:05.866Z,97081.52
2023-01-26T18:26:38.210Z,97079.83
2023-01-26T18:29:07.343Z,97082.08
2023-01-26T18:31:38.169Z,97083.11
2023-01-26T18:34:06.778Z,97077.49
2023-01-26T18:36:35.148Z,97077.15
2023-01-26T18:39:07.141Z,97075.77
2023-01-26T18:41:35.401Z,97074.77
2023-01-26T18:44:04.004Z,97072.20
2023-01-26T18:46:32.262Z,97070.37
2023-01-26T18:49:01.162Z,97071.44
2023-01-26T18:51:35.167Z,97070.24
2023-01-26T18:54:04.917Z,97072.02
2023-01-26T18:56:33.911Z,97067.61
2023-01-26T18:59:02.057Z,97070.39
2023-01-26T19:01:30.319Z,97069.77
2023-01-26T19:03:59.013Z,97068.41
2023-01-26T19:06:30.915Z,97072.54
2023-01-26T19:09:02.672Z,97070.82
2023-01-26T19:11:33.228Z,97063.30
2023-01-26T19:14:02.290Z,97056.68
2023-01-26T19:16:31.133Z,97052.57
2023-01-26T19:18:59.470Z,97049.38
2023-01-26T19:21:28.249Z,97044.77
2023-01-26T19:23:58.811Z,97047.18
2023-01-26T19:26:29.826Z,97044.06
2023-01-26T19:28:58.955Z,97045.92
2023-01-26T19:31:28.242Z,97039.45
2023-01-26T19:34:01.838Z,97035.70
2023-01-26T19:36:32.324Z,97032.98
2023-01-26T19:39:01.780Z,97031.14
2023-01-26T19:41:30.153Z,97033.70
2023-01-26T19:43:58.254Z,97033.57
2023-01-26T19:46:26.827Z,97031.55
2023-01-26T19:48:54.927Z,97026.33
2023-01-26T19:51:26.781Z,97019.15
2023-01-26T19:53:57.416Z,97015.92
2023-01-26T19:56:31.273Z,97015.27
2023-01-26T19:59:02.359Z,97017.88
2023-01-26T20:01:32.389Z,97013.66
2023-01-26T20:04:03.173Z,97012.30
2023-01-26T20:06:33.544Z,97013.65
2023-01-26T20:09:03.914Z,97005.95
2023-01-26T20:11:32.455Z,97004.92
2023-01-26T20:14:03.785Z,97003.76
2023-01-26T20:16:34.382Z,97001.16
2023-01-26T20:19:04.005Z,96993.98
2023-01-26T20:21:32.746Z,96986.62
2023-01-26T20:24:05.545Z,96980.77
2023-01-26T20:26:34.970Z,96979.73
2023-01-26T20:29:03.929Z,96971.89
2023-01-26T20:31:33.197Z,96973.12
2023-01-26T20:34:02.364Z,96971.40
2023-01-26T20:36:32.104Z,96970.58
2023-01-26T20:39:01.574Z,96969.04
2023-01-26T20:41:31.872Z,96963.02
2023-01-26T20:44:02.932Z,96958.61
2023-01-26T20:46:41.552Z,96954.48
2023-01-26T20:49:15.721Z,96954.12
2023-01-26T20:51:45.380Z,96951.38
2023-01-26T20:54:15.506Z,96949.00
2023-01-26T20:56:49.108Z,96950.19
2023-01-26T20:59:19.015Z,96955.65
2023-01-26T21:01:47.144Z,96952.59
2023-01-26T21:04:15.475Z,96947.60
2023-01-26T21:06:43.866Z,96942.30
2023-01-26T21:09:13.019Z,96940.39
2023-01-26T21:11:41.355Z,96934.61
2023-01-26T21:14:11.878Z,96940.27
2023-01-26T21:16:40.848Z,96954.14
2023-01-26T21:19:08.958Z,96951.44
2023-01-26T21:21:37.228Z,96944.27
2023-01-26T21:24:05.959Z,96944.47
2023-01-26T21:26:34.916Z,96936.98
2023-01-26T21:29:04.317Z,96940.58
2023-01-26T21:31:34.078Z,96937.55
2023-01-26T21:34:02.210Z,96932.94
2023-01-26T21:36:31.994Z,96933.33
2023-01-26T21:39:01.146Z,96932.20
2023-01-26T21:41:49.473Z,96929.33
2023-01-26T21:44:20.479Z,96929.02
2023-01-26T21:46:51.924Z,96929.77
2023-01-26T21:49:21.268Z,96927.10
2023-01-26T21:52:08.493Z,96933.73
2023-01-26T21:54:37.791Z,96930.67
2023-01-26T21:57:28.367Z,96931.23
2023-01-26T21:59:56.663Z,96923.40
2023-01-26T22:02:25.037Z,96919.85
2023-01-26T22:04:53.115Z,96911.67
2023-01-26T22:07:21.139Z,96906.91
2023-01-26T22:09:49.375Z,96904.39
2023-01-26T22:12:17.446Z,96899.33
2023-01-26T22:14:45.639Z,96901.08
2023-01-26T22:17:13.825Z,96901.61
2023-01-26T22:19:41.885Z,96904.27
2023-01-26T22:22:10.062Z,96903.63
2023-01-26T22:24:38.134Z,96904.17
2023-01-26T22:27:08.390Z,96903.92
2023-01-26T22:29:36.849Z,96907.18
2023-01-26T22:32:05.544Z,96908.99
2023-01-26T22:34:34.033Z,96903.77
2023-01-26T22:37:02.927Z,96903.12
2023-01-26T22:39:31.000Z,96898.04
2023-01-26T22:41:59.583Z,96890.77
2023-01-26T22:44:27.570Z,96886.02
2023-01-26T22:46:56.051Z,96883.36
2023-01-26T22:49:24.131Z,96880.90
2023-01-26T22:51:52.711Z,96881.13
2023-01-26T22:54:20.789Z,96878.27
2023-01-26T22:56:48.756Z,96875.80
2023-01-26T22:59:16.882Z,96867.80
2023-01-26T23:01:45.215Z,96866.63
2023-01-26T23:04:13.416Z,96867.20
2023-01-26T23:06:41.371Z,96863.93
2023-01-26T23:09:09.454Z,96862.91
2023-01-26T23:11:38.040Z,96860.42
2023-01-26T23:14:06.113Z,96865.23
2023-01-26T23:16:34.175Z,96868.89
2023-01-26T23:19:02.467Z,96862.24
2023-01-26T23:21:30.655Z,96860.25
2023-01-26T23:23:59.088Z,96864.21
2023-01-26T23:26:27.421Z,96864.45
2023-01-26T23:28:55.717Z,96855.27
2023-01-26T23:31:23.935Z,96853.75
2023-01-26T23:33:52.259Z,96856.02
2023-01-26T23:36:20.958Z,96853.83
2023-01-26T23:38:50.249Z,96849.79
2023-01-26T23:41:19.255Z,96849.08
2023-01-26T23:43:47.442Z,96848.58
2023-01-26T23:46:15.507Z,96845.33
2023-01-26T23:48:43.583Z,96846.67
2023-01-26T23:51:12.871Z,96839.52
2023-01-26T23:53:41.276Z,96826.73
2023-01-26T23:56:18.255Z,96822.99
2023-01-26T23:58:46.222Z,96820.66
